KCDH

Harrell Field Airport

Camden, Arkansas, USA
METAR KCDH 151335Z AUTO 00000KT 10SM CLR M02/M04 A3025 RMK AO2
Observed Flight Rules
Dec-15 @ 13:35 UTC (20 minutes ago) Visual Flight Rules
Wind Visibility Clouds
Calm 10 miles
  • Clear skies
Temperatures Readings
Current -2°C / 28°F
Dewpoint -4°C / 25°F
Humidity 86%
Altimeter 30.25" Hg
Pressure 1024 hPa
Elevation 35
METAR KCDH 151335Z AUTO 00000KT 10SM CLR M02/M04 A3025 RMK AO2
Observed Flight Rules
Dec-15 @ 13:35 UTC
(20 minutes ago)
VFR
Wind Visibility
Calm 10 miles
Clouds
  • Clear skies
Temperature Dewpoint
-2°C / 28°F -4°C / 25°F
Humidity Altimeter Pressure
86% 30.25" Hg 1024 hPa